sensor_id;sensor_type;location;lat;lon;timestamp;P1;durP1;ratioP1;P2;durP2;ratioP2
59388;SDS011;51830;45.202;19.720;2023-07-29T00:00:34;15.18;;;3.65;;
59388;SDS011;51830;45.202;19.720;2023-07-29T00:03:00;15.13;;;3.95;;
59388;SDS011;51830;45.202;19.720;2023-07-29T00:05:26;14.88;;;3.83;;
59388;SDS011;51830;45.202;19.720;2023-07-29T00:07:53;13.85;;;3.42;;
59388;SDS011;51830;45.202;19.720;2023-07-29T00:10:19;12.73;;;3.20;;
59388;SDS011;51830;45.202;19.720;2023-07-29T00:12:45;14.52;;;3.35;;
59388;SDS011;51830;45.202;19.720;2023-07-29T00:15:11;11.52;;;3.20;;
59388;SDS011;51830;45.202;19.720;2023-07-29T00:17:37;10.90;;;3.00;;
59388;SDS011;51830;45.202;19.720;2023-07-29T00:20:04;15.35;;;3.20;;
59388;SDS011;51830;45.202;19.720;2023-07-29T00:22:30;9.90;;;2.85;;
59388;SDS011;51830;45.202;19.720;2023-07-29T00:24:56;14.98;;;3.10;;
59388;SDS011;51830;45.202;19.720;2023-07-29T00:27:24;12.38;;;2.80;;
59388;SDS011;51830;45.202;19.720;2023-07-29T00:29:50;11.85;;;3.15;;
59388;SDS011;51830;45.202;19.720;2023-07-29T00:32:17;12.20;;;3.38;;
59388;SDS011;51830;45.202;19.720;2023-07-29T00:34:43;10.85;;;2.95;;
59388;SDS011;51830;45.202;19.720;2023-07-29T00:37:09;10.48;;;2.88;;
59388;SDS011;51830;45.202;19.720;2023-07-29T00:39:36;13.63;;;2.90;;
59388;SDS011;51830;45.202;19.720;2023-07-29T00:42:02;14.00;;;3.22;;
59388;SDS011;51830;45.202;19.720;2023-07-29T00:44:28;12.35;;;3.03;;
59388;SDS011;51830;45.202;19.720;2023-07-29T00:46:56;11.05;;;2.83;;
59388;SDS011;51830;45.202;19.720;2023-07-29T00:49:23;11.23;;;2.83;;
59388;SDS011;51830;45.202;19.720;2023-07-29T00:51:49;15.15;;;2.97;;
59388;SDS011;51830;45.202;19.720;2023-07-29T00:54:16;12.23;;;2.92;;
59388;SDS011;51830;45.202;19.720;2023-07-29T00:56:42;10.85;;;2.80;;
59388;SDS011;51830;45.202;19.720;2023-07-29T00:59:08;9.30;;;2.53;;
59388;SDS011;51830;45.202;19.720;2023-07-29T01:01:34;13.27;;;2.95;;
59388;SDS011;51830;45.202;19.720;2023-07-29T01:04:01;10.98;;;3.08;;
59388;SDS011;51830;45.202;19.720;2023-07-29T01:09:02;10.90;;;2.50;;
59388;SDS011;51830;45.202;19.720;2023-07-29T01:14:05;10.43;;;2.90;;
59388;SDS011;51830;45.202;19.720;2023-07-29T01:16:39;12.57;;;3.10;;
59388;SDS011;51830;45.202;19.720;2023-07-29T01:19:17;10.98;;;2.75;;
59388;SDS011;51830;45.202;19.720;2023-07-29T01:21:46;12.77;;;3.03;;
59388;SDS011;51830;45.202;19.720;2023-07-29T01:24:12;8.43;;;2.35;;
59388;SDS011;51830;45.202;19.720;2023-07-29T01:26:38;11.45;;;2.88;;
59388;SDS011;51830;45.202;19.720;2023-07-29T01:29:04;10.60;;;2.88;;
59388;SDS011;51830;45.202;19.720;2023-07-29T01:31:32;12.43;;;3.00;;
59388;SDS011;51830;45.202;19.720;2023-07-29T01:34:02;11.00;;;2.60;;
59388;SDS011;51830;45.202;19.720;2023-07-29T01:36:30;12.52;;;3.38;;
59388;SDS011;51830;45.202;19.720;2023-07-29T01:38:58;12.80;;;2.92;;
59388;SDS011;51830;45.202;19.720;2023-07-29T01:41:25;13.57;;;2.88;;
59388;SDS011;51830;45.202;19.720;2023-07-29T01:43:51;12.07;;;3.00;;
59388;SDS011;51830;45.202;19.720;2023-07-29T01:46:19;10.27;;;2.75;;
59388;SDS011;51830;45.202;19.720;2023-07-29T01:48:46;10.63;;;2.72;;
59388;SDS011;51830;45.202;19.720;2023-07-29T01:51:12;10.82;;;2.70;;
59388;SDS011;51830;45.202;19.720;2023-07-29T01:53:38;10.88;;;2.88;;
59388;SDS011;51830;45.202;19.720;2023-07-29T01:56:04;8.88;;;2.65;;
59388;SDS011;51830;45.202;19.720;2023-07-29T01:58:31;10.98;;;2.72;;
59388;SDS011;51830;45.202;19.720;2023-07-29T02:00:57;9.50;;;2.65;;
59388;SDS011;51830;45.202;19.720;2023-07-29T02:03:23;13.18;;;3.10;;
59388;SDS011;51830;45.202;19.720;2023-07-29T02:05:49;9.35;;;2.50;;
59388;SDS011;51830;45.202;19.720;2023-07-29T02:08:15;11.60;;;2.63;;
59388;SDS011;51830;45.202;19.720;2023-07-29T02:10:41;11.43;;;2.80;;
59388;SDS011;51830;45.202;19.720;2023-07-29T02:13:10;8.40;;;2.58;;
59388;SDS011;51830;45.202;19.720;2023-07-29T02:15:36;11.27;;;2.78;;
59388;SDS011;51830;45.202;19.720;2023-07-29T02:18:02;10.68;;;2.78;;
59388;SDS011;51830;45.202;19.720;2023-07-29T02:20:29;10.98;;;2.90;;
59388;SDS011;51830;45.202;19.720;2023-07-29T02:22:55;10.55;;;2.80;;
59388;SDS011;51830;45.202;19.720;2023-07-29T02:25:21;14.00;;;2.90;;
59388;SDS011;51830;45.202;19.720;2023-07-29T02:27:47;11.48;;;2.70;;
59388;SDS011;51830;45.202;19.720;2023-07-29T02:30:13;10.18;;;2.60;;
59388;SDS011;51830;45.202;19.720;2023-07-29T02:32:40;11.25;;;3.00;;
59388;SDS011;51830;45.202;19.720;2023-07-29T02:35:06;10.93;;;2.70;;
59388;SDS011;51830;45.202;19.720;2023-07-29T02:37:33;10.80;;;2.60;;
59388;SDS011;51830;45.202;19.720;2023-07-29T02:39:59;10.80;;;2.72;;
59388;SDS011;51830;45.202;19.720;2023-07-29T02:42:25;9.82;;;2.60;;
59388;SDS011;51830;45.202;19.720;2023-07-29T02:44:51;10.80;;;2.55;;
59388;SDS011;51830;45.202;19.720;2023-07-29T02:47:18;10.55;;;2.65;;
59388;SDS011;51830;45.202;19.720;2023-07-29T02:49:44;9.13;;;2.95;;
59388;SDS011;51830;45.202;19.720;2023-07-29T02:52:10;11.65;;;2.80;;
59388;SDS011;51830;45.202;19.720;2023-07-29T02:54:37;12.02;;;2.88;;
59388;SDS011;51830;45.202;19.720;2023-07-29T02:57:03;11.38;;;2.85;;
59388;SDS011;51830;45.202;19.720;2023-07-29T02:59:29;9.90;;;2.63;;
59388;SDS011;51830;45.202;19.720;2023-07-29T03:01:55;9.27;;;2.42;;
59388;SDS011;51830;45.202;19.720;2023-07-29T03:04:22;9.40;;;2.28;;
59388;SDS011;51830;45.202;19.720;2023-07-29T03:06:48;10.55;;;2.85;;
59388;SDS011;51830;45.202;19.720;2023-07-29T03:09:14;9.93;;;2.60;;
59388;SDS011;51830;45.202;19.720;2023-07-29T03:11:41;12.20;;;2.78;;
59388;SDS011;51830;45.202;19.720;2023-07-29T03:14:07;9.60;;;2.75;;
59388;SDS011;51830;45.202;19.720;2023-07-29T03:16:34;10.32;;;2.70;;
59388;SDS011;51830;45.202;19.720;2023-07-29T03:19:03;10.27;;;2.70;;
59388;SDS011;51830;45.202;19.720;2023-07-29T03:21:31;12.18;;;2.80;;
59388;SDS011;51830;45.202;19.720;2023-07-29T03:23:57;9.63;;;2.72;;
59388;SDS011;51830;45.202;19.720;2023-07-29T03:26:24;10.93;;;2.83;;
59388;SDS011;51830;45.202;19.720;2023-07-29T03:28:50;12.50;;;2.90;;
59388;SDS011;51830;45.202;19.720;2023-07-29T03:31:16;11.85;;;2.88;;
59388;SDS011;51830;45.202;19.720;2023-07-29T03:33:43;10.65;;;3.03;;
59388;SDS011;51830;45.202;19.720;2023-07-29T03:36:09;10.13;;;2.85;;
59388;SDS011;51830;45.202;19.720;2023-07-29T03:38:35;14.15;;;3.45;;
59388;SDS011;51830;45.202;19.720;2023-07-29T03:41:06;11.32;;;3.13;;
59388;SDS011;51830;45.202;19.720;2023-07-29T03:43:33;11.98;;;3.25;;
59388;SDS011;51830;45.202;19.720;2023-07-29T03:46:00;13.35;;;3.60;;
59388;SDS011;51830;45.202;19.720;2023-07-29T03:48:26;16.88;;;3.78;;
59388;SDS011;51830;45.202;19.720;2023-07-29T03:50:52;14.90;;;4.13;;
59388;SDS011;51830;45.202;19.720;2023-07-29T03:53:19;15.90;;;4.18;;
59388;SDS011;51830;45.202;19.720;2023-07-29T03:55:45;14.18;;;4.13;;
59388;SDS011;51830;45.202;19.720;2023-07-29T03:58:12;15.20;;;3.95;;
59388;SDS011;51830;45.202;19.720;2023-07-29T04:00:38;19.05;;;4.35;;
59388;SDS011;51830;45.202;19.720;2023-07-29T04:03:04;14.45;;;3.92;;
59388;SDS011;51830;45.202;19.720;2023-07-29T04:05:31;12.52;;;3.25;;
59388;SDS011;51830;45.202;19.720;2023-07-29T04:07:57;13.05;;;3.50;;
59388;SDS011;51830;45.202;19.720;2023-07-29T04:10:23;15.30;;;3.90;;
59388;SDS011;51830;45.202;19.720;2023-07-29T04:12:50;13.13;;;3.38;;
59388;SDS011;51830;45.202;19.720;2023-07-29T04:15:16;14.35;;;3.47;;
59388;SDS011;51830;45.202;19.720;2023-07-29T04:17:42;14.52;;;3.42;;
59388;SDS011;51830;45.202;19.720;2023-07-29T04:20:09;12.55;;;3.17;;
59388;SDS011;51830;45.202;19.720;2023-07-29T04:22:36;14.23;;;4.05;;
59388;SDS011;51830;45.202;19.720;2023-07-29T04:25:02;13.35;;;3.65;;
59388;SDS011;51830;45.202;19.720;2023-07-29T04:27:29;22.45;;;3.72;;
59388;SDS011;51830;45.202;19.720;2023-07-29T04:29:56;19.88;;;3.72;;
59388;SDS011;51830;45.202;19.720;2023-07-29T04:32:23;12.98;;;3.40;;
59388;SDS011;51830;45.202;19.720;2023-07-29T04:34:49;14.38;;;3.03;;
59388;SDS011;51830;45.202;19.720;2023-07-29T04:37:15;10.73;;;2.95;;
59388;SDS011;51830;45.202;19.720;2023-07-29T04:39:41;10.68;;;2.80;;
59388;SDS011;51830;45.202;19.720;2023-07-29T04:42:08;14.63;;;3.15;;
59388;SDS011;51830;45.202;19.720;2023-07-29T04:44:34;10.18;;;2.72;;
59388;SDS011;51830;45.202;19.720;2023-07-29T04:47:00;11.88;;;2.88;;
59388;SDS011;51830;45.202;19.720;2023-07-29T04:49:27;11.10;;;2.88;;
59388;SDS011;51830;45.202;19.720;2023-07-29T04:51:53;10.25;;;2.78;;
59388;SDS011;51830;45.202;19.720;2023-07-29T04:54:19;14.13;;;3.40;;
59388;SDS011;51830;45.202;19.720;2023-07-29T04:56:46;16.27;;;3.42;;
59388;SDS011;51830;45.202;19.720;2023-07-29T04:59:13;10.93;;;2.90;;
59388;SDS011;51830;45.202;19.720;2023-07-29T05:01:39;11.35;;;3.10;;
59388;SDS011;51830;45.202;19.720;2023-07-29T05:04:07;10.73;;;3.08;;
59388;SDS011;51830;45.202;19.720;2023-07-29T05:06:33;14.13;;;3.08;;
59388;SDS011;51830;45.202;19.720;2023-07-29T05:09:11;10.13;;;2.70;;
59388;SDS011;51830;45.202;19.720;2023-07-29T05:11:39;12.82;;;3.10;;
59388;SDS011;51830;45.202;19.720;2023-07-29T05:14:05;12.10;;;3.05;;
59388;SDS011;51830;45.202;19.720;2023-07-29T05:16:31;11.85;;;3.00;;
59388;SDS011;51830;45.202;19.720;2023-07-29T05:18:58;10.93;;;3.08;;
59388;SDS011;51830;45.202;19.720;2023-07-29T05:21:24;15.02;;;3.17;;
59388;SDS011;51830;45.202;19.720;2023-07-29T05:23:53;12.75;;;3.15;;
59388;SDS011;51830;45.202;19.720;2023-07-29T05:26:20;13.90;;;3.40;;
59388;SDS011;51830;45.202;19.720;2023-07-29T05:28:46;11.88;;;2.92;;
59388;SDS011;51830;45.202;19.720;2023-07-29T05:31:21;10.85;;;2.80;;
59388;SDS011;51830;45.202;19.720;2023-07-29T05:33:48;10.75;;;3.08;;
59388;SDS011;51830;45.202;19.720;2023-07-29T05:36:14;11.73;;;2.97;;
59388;SDS011;51830;45.202;19.720;2023-07-29T05:38:41;10.88;;;2.80;;
59388;SDS011;51830;45.202;19.720;2023-07-29T05:41:07;10.50;;;2.80;;
59388;SDS011;51830;45.202;19.720;2023-07-29T05:43:33;11.20;;;2.83;;
59388;SDS011;51830;45.202;19.720;2023-07-29T05:46:00;12.05;;;2.85;;
59388;SDS011;51830;45.202;19.720;2023-07-29T05:48:26;10.20;;;2.88;;
59388;SDS011;51830;45.202;19.720;2023-07-29T05:50:52;10.95;;;2.90;;
59388;SDS011;51830;45.202;19.720;2023-07-29T05:53:18;10.75;;;2.75;;
59388;SDS011;51830;45.202;19.720;2023-07-29T05:55:45;8.07;;;2.47;;
59388;SDS011;51830;45.202;19.720;2023-07-29T05:58:11;9.57;;;2.60;;
59388;SDS011;51830;45.202;19.720;2023-07-29T06:00:37;12.07;;;2.97;;
59388;SDS011;51830;45.202;19.720;2023-07-29T06:03:04;12.32;;;2.72;;
59388;SDS011;51830;45.202;19.720;2023-07-29T06:05:30;11.05;;;2.70;;
59388;SDS011;51830;45.202;19.720;2023-07-29T06:07:56;11.75;;;2.72;;
59388;SDS011;51830;45.202;19.720;2023-07-29T06:10:22;12.65;;;3.15;;
59388;SDS011;51830;45.202;19.720;2023-07-29T06:12:49;12.48;;;3.03;;
59388;SDS011;51830;45.202;19.720;2023-07-29T06:15:15;11.27;;;2.80;;
59388;SDS011;51830;45.202;19.720;2023-07-29T06:17:41;11.52;;;2.90;;
59388;SDS011;51830;45.202;19.720;2023-07-29T06:20:08;10.02;;;2.70;;
59388;SDS011;51830;45.202;19.720;2023-07-29T06:22:34;13.85;;;2.80;;
59388;SDS011;51830;45.202;19.720;2023-07-29T06:25:00;12.07;;;2.60;;
59388;SDS011;51830;45.202;19.720;2023-07-29T06:27:27;9.02;;;2.25;;
59388;SDS011;51830;45.202;19.720;2023-07-29T06:29:53;6.45;;;2.13;;
59388;SDS011;51830;45.202;19.720;2023-07-29T06:32:19;11.23;;;2.70;;
59388;SDS011;51830;45.202;19.720;2023-07-29T06:34:45;10.85;;;2.38;;
59388;SDS011;51830;45.202;19.720;2023-07-29T06:37:12;14.05;;;3.03;;
59388;SDS011;51830;45.202;19.720;2023-07-29T06:39:38;9.85;;;2.70;;
59388;SDS011;51830;45.202;19.720;2023-07-29T06:42:04;14.77;;;3.08;;
59388;SDS011;51830;45.202;19.720;2023-07-29T06:44:31;13.80;;;2.63;;
59388;SDS011;51830;45.202;19.720;2023-07-29T06:46:57;8.25;;;2.25;;
59388;SDS011;51830;45.202;19.720;2023-07-29T06:49:24;11.95;;;3.10;;
59388;SDS011;51830;45.202;19.720;2023-07-29T06:51:50;9.60;;;2.40;;
59388;SDS011;51830;45.202;19.720;2023-07-29T06:54:16;10.43;;;2.55;;
59388;SDS011;51830;45.202;19.720;2023-07-29T06:56:43;11.75;;;2.40;;
59388;SDS011;51830;45.202;19.720;2023-07-29T06:59:09;11.27;;;2.40;;
59388;SDS011;51830;45.202;19.720;2023-07-29T07:01:35;12.40;;;2.40;;
59388;SDS011;51830;45.202;19.720;2023-07-29T07:04:01;9.52;;;2.30;;
59388;SDS011;51830;45.202;19.720;2023-07-29T07:06:28;8.13;;;2.25;;
59388;SDS011;51830;45.202;19.720;2023-07-29T07:08:54;9.57;;;2.55;;
59388;SDS011;51830;45.202;19.720;2023-07-29T07:11:20;9.05;;;2.38;;
59388;SDS011;51830;45.202;19.720;2023-07-29T07:13:47;11.48;;;2.72;;
59388;SDS011;51830;45.202;19.720;2023-07-29T07:16:13;11.73;;;2.63;;
59388;SDS011;51830;45.202;19.720;2023-07-29T07:18:39;8.23;;;2.28;;
59388;SDS011;51830;45.202;19.720;2023-07-29T07:21:05;10.48;;;2.58;;
59388;SDS011;51830;45.202;19.720;2023-07-29T07:23:32;8.73;;;2.63;;
59388;SDS011;51830;45.202;19.720;2023-07-29T07:25:58;10.98;;;2.80;;
59388;SDS011;51830;45.202;19.720;2023-07-29T07:28:24;13.38;;;2.92;;
59388;SDS011;51830;45.202;19.720;2023-07-29T07:30:51;13.48;;;2.80;;
59388;SDS011;51830;45.202;19.720;2023-07-29T07:33:17;15.00;;;2.78;;
59388;SDS011;51830;45.202;19.720;2023-07-29T07:35:43;14.07;;;2.58;;
59388;SDS011;51830;45.202;19.720;2023-07-29T07:38:10;11.40;;;2.80;;
59388;SDS011;51830;45.202;19.720;2023-07-29T07:40:36;12.68;;;2.80;;
59388;SDS011;51830;45.202;19.720;2023-07-29T07:43:02;10.73;;;2.75;;
59388;SDS011;51830;45.202;19.720;2023-07-29T07:45:29;14.32;;;2.90;;
59388;SDS011;51830;45.202;19.720;2023-07-29T07:47:55;11.70;;;2.85;;
59388;SDS011;51830;45.202;19.720;2023-07-29T07:50:22;14.38;;;3.05;;
59388;SDS011;51830;45.202;19.720;2023-07-29T07:52:49;9.32;;;2.45;;
59388;SDS011;51830;45.202;19.720;2023-07-29T07:55:15;8.70;;;2.55;;
59388;SDS011;51830;45.202;19.720;2023-07-29T07:57:41;12.38;;;2.88;;
59388;SDS011;51830;45.202;19.720;2023-07-29T08:00:08;10.88;;;2.72;;
59388;SDS011;51830;45.202;19.720;2023-07-29T08:02:35;10.57;;;2.50;;
59388;SDS011;51830;45.202;19.720;2023-07-29T08:05:01;10.85;;;2.70;;
59388;SDS011;51830;45.202;19.720;2023-07-29T08:07:27;9.75;;;2.67;;
59388;SDS011;51830;45.202;19.720;2023-07-29T08:09:54;11.45;;;2.78;;
59388;SDS011;51830;45.202;19.720;2023-07-29T08:12:20;13.18;;;3.22;;
59388;SDS011;51830;45.202;19.720;2023-07-29T08:14:46;10.48;;;2.65;;
59388;SDS011;51830;45.202;19.720;2023-07-29T08:17:12;13.07;;;2.97;;
59388;SDS011;51830;45.202;19.720;2023-07-29T08:19:39;10.77;;;2.92;;
59388;SDS011;51830;45.202;19.720;2023-07-29T08:22:05;10.88;;;2.72;;
59388;SDS011;51830;45.202;19.720;2023-07-29T08:24:31;12.27;;;3.30;;
59388;SDS011;51830;45.202;19.720;2023-07-29T08:26:59;11.65;;;2.97;;
59388;SDS011;51830;45.202;19.720;2023-07-29T08:29:25;11.95;;;2.83;;
59388;SDS011;51830;45.202;19.720;2023-07-29T08:31:51;11.02;;;2.85;;
59388;SDS011;51830;45.202;19.720;2023-07-29T08:34:17;10.48;;;2.60;;
59388;SDS011;51830;45.202;19.720;2023-07-29T08:36:43;10.73;;;2.80;;
59388;SDS011;51830;45.202;19.720;2023-07-29T08:39:09;14.75;;;2.80;;
59388;SDS011;51830;45.202;19.720;2023-07-29T08:44:18;13.55;;;2.90;;
59388;SDS011;51830;45.202;19.720;2023-07-29T08:46:47;18.73;;;2.80;;
59388;SDS011;51830;45.202;19.720;2023-07-29T08:49:14;11.20;;;2.65;;
59388;SDS011;51830;45.202;19.720;2023-07-29T08:51:44;14.73;;;3.10;;
59388;SDS011;51830;45.202;19.720;2023-07-29T08:54:10;9.82;;;2.72;;
59388;SDS011;51830;45.202;19.720;2023-07-29T08:56:36;10.43;;;2.83;;
59388;SDS011;51830;45.202;19.720;2023-07-29T08:59:03;12.63;;;3.00;;
59388;SDS011;51830;45.202;19.720;2023-07-29T09:01:30;17.65;;;2.92;;
59388;SDS011;51830;45.202;19.720;2023-07-29T09:03:56;11.10;;;2.97;;
59388;SDS011;51830;45.202;19.720;2023-07-29T09:06:22;13.50;;;3.08;;
59388;SDS011;51830;45.202;19.720;2023-07-29T09:08:51;12.93;;;2.88;;
59388;SDS011;51830;45.202;19.720;2023-07-29T09:11:20;12.00;;;2.67;;
59388;SDS011;51830;45.202;19.720;2023-07-29T09:13:46;9.52;;;2.42;;
59388;SDS011;51830;45.202;19.720;2023-07-29T09:16:13;11.98;;;2.78;;
59388;SDS011;51830;45.202;19.720;2023-07-29T09:18:39;9.32;;;2.60;;
59388;SDS011;51830;45.202;19.720;2023-07-29T09:21:05;10.73;;;2.75;;
59388;SDS011;51830;45.202;19.720;2023-07-29T09:23:44;14.77;;;2.85;;
59388;SDS011;51830;45.202;19.720;2023-07-29T09:26:13;11.02;;;2.80;;
59388;SDS011;51830;45.202;19.720;2023-07-29T09:28:39;11.75;;;2.60;;
59388;SDS011;51830;45.202;19.720;2023-07-29T09:31:06;13.07;;;2.80;;
59388;SDS011;51830;45.202;19.720;2023-07-29T09:33:35;9.25;;;2.55;;
59388;SDS011;51830;45.202;19.720;2023-07-29T09:36:02;10.57;;;2.83;;
59388;SDS011;51830;45.202;19.720;2023-07-29T09:38:29;11.30;;;2.90;;
59388;SDS011;51830;45.202;19.720;2023-07-29T09:40:56;10.98;;;2.88;;
59388;SDS011;51830;45.202;19.720;2023-07-29T09:43:26;13.13;;;2.97;;
59388;SDS011;51830;45.202;19.720;2023-07-29T09:45:54;15.00;;;3.40;;
59388;SDS011;51830;45.202;19.720;2023-07-29T09:48:23;19.95;;;4.28;;
59388;SDS011;51830;45.202;19.720;2023-07-29T09:50:50;13.45;;;3.70;;
59388;SDS011;51830;45.202;19.720;2023-07-29T09:53:16;12.52;;;2.78;;
59388;SDS011;51830;45.202;19.720;2023-07-29T09:55:46;12.27;;;3.00;;
59388;SDS011;51830;45.202;19.720;2023-07-29T09:58:13;13.27;;;3.33;;
59388;SDS011;51830;45.202;19.720;2023-07-29T10:00:39;10.63;;;2.60;;
59388;SDS011;51830;45.202;19.720;2023-07-29T10:03:06;12.38;;;3.20;;
59388;SDS011;51830;45.202;19.720;2023-07-29T10:05:32;14.63;;;4.00;;
59388;SDS011;51830;45.202;19.720;2023-07-29T10:08:01;17.33;;;5.00;;
59388;SDS011;51830;45.202;19.720;2023-07-29T10:10:28;15.80;;;3.97;;
59388;SDS011;51830;45.202;19.720;2023-07-29T10:12:55;13.43;;;3.50;;
59388;SDS011;51830;45.202;19.720;2023-07-29T10:15:22;14.10;;;3.28;;
59388;SDS011;51830;45.202;19.720;2023-07-29T10:17:48;13.88;;;3.25;;
59388;SDS011;51830;45.202;19.720;2023-07-29T10:20:15;9.55;;;2.85;;
59388;SDS011;51830;45.202;19.720;2023-07-29T10:22:42;12.10;;;2.58;;
59388;SDS011;51830;45.202;19.720;2023-07-29T10:25:19;10.77;;;2.50;;
59388;SDS011;51830;45.202;19.720;2023-07-29T10:27:55;9.10;;;2.40;;
59388;SDS011;51830;45.202;19.720;2023-07-29T10:30:22;10.30;;;2.60;;
59388;SDS011;51830;45.202;19.720;2023-07-29T10:32:50;13.95;;;2.90;;
59388;SDS011;51830;45.202;19.720;2023-07-29T10:35:17;13.13;;;2.83;;
59388;SDS011;51830;45.202;19.720;2023-07-29T10:37:44;9.27;;;2.38;;
59388;SDS011;51830;45.202;19.720;2023-07-29T10:40:11;9.45;;;2.60;;
59388;SDS011;51830;45.202;19.720;2023-07-29T10:42:37;25.23;;;3.40;;
59388;SDS011;51830;45.202;19.720;2023-07-29T10:45:20;9.00;;;2.47;;
59388;SDS011;51830;45.202;19.720;2023-07-29T10:47:46;11.93;;;2.75;;
59388;SDS011;51830;45.202;19.720;2023-07-29T10:50:20;11.43;;;2.80;;
59388;SDS011;51830;45.202;19.720;2023-07-29T10:52:52;12.27;;;2.60;;
59388;SDS011;51830;45.202;19.720;2023-07-29T10:55:26;12.15;;;2.80;;
59388;SDS011;51830;45.202;19.720;2023-07-29T10:57:54;10.23;;;2.55;;
59388;SDS011;51830;45.202;19.720;2023-07-29T11:00:32;13.02;;;2.80;;
59388;SDS011;51830;45.202;19.720;2023-07-29T11:02:59;14.30;;;2.72;;
59388;SDS011;51830;45.202;19.720;2023-07-29T11:05:45;10.73;;;2.60;;
59388;SDS011;51830;45.202;19.720;2023-07-29T11:08:21;9.27;;;2.40;;
59388;SDS011;51830;45.202;19.720;2023-07-29T11:13:43;12.52;;;3.08;;
59388;SDS011;51830;45.202;19.720;2023-07-29T11:16:09;8.77;;;2.65;;
59388;SDS011;51830;45.202;19.720;2023-07-29T11:18:36;14.75;;;3.25;;
59388;SDS011;51830;45.202;19.720;2023-07-29T11:21:03;11.52;;;2.50;;
59388;SDS011;51830;45.202;19.720;2023-07-29T11:23:33;12.00;;;2.80;;
59388;SDS011;51830;45.202;19.720;2023-07-29T11:26:00;8.18;;;2.38;;
59388;SDS011;51830;45.202;19.720;2023-07-29T11:28:27;12.80;;;2.60;;
59388;SDS011;51830;45.202;19.720;2023-07-29T11:30:56;9.10;;;2.67;;
59388;SDS011;51830;45.202;19.720;2023-07-29T11:33:24;10.68;;;3.00;;
59388;SDS011;51830;45.202;19.720;2023-07-29T11:35:50;8.77;;;2.47;;
59388;SDS011;51830;45.202;19.720;2023-07-29T11:38:17;9.68;;;2.50;;
59388;SDS011;51830;45.202;19.720;2023-07-29T11:40:53;19.48;;;5.80;;
59388;SDS011;51830;45.202;19.720;2023-07-29T11:43:22;16.38;;;5.47;;
59388;SDS011;51830;45.202;19.720;2023-07-29T11:45:48;14.38;;;4.18;;
59388;SDS011;51830;45.202;19.720;2023-07-29T11:48:14;11.55;;;3.13;;
59388;SDS011;51830;45.202;19.720;2023-07-29T11:50:41;13.82;;;2.83;;
59388;SDS011;51830;45.202;19.720;2023-07-29T11:53:07;12.60;;;2.72;;
59388;SDS011;51830;45.202;19.720;2023-07-29T11:55:34;8.98;;;2.58;;
59388;SDS011;51830;45.202;19.720;2023-07-29T11:58:00;9.85;;;2.72;;
59388;SDS011;51830;45.202;19.720;2023-07-29T12:00:27;12.35;;;2.72;;
59388;SDS011;51830;45.202;19.720;2023-07-29T12:02:54;12.63;;;3.00;;
59388;SDS011;51830;45.202;19.720;2023-07-29T12:05:20;9.25;;;2.70;;
59388;SDS011;51830;45.202;19.720;2023-07-29T12:07:47;11.77;;;3.53;;
59388;SDS011;51830;45.202;19.720;2023-07-29T12:10:13;10.82;;;2.97;;
59388;SDS011;51830;45.202;19.720;2023-07-29T12:12:46;13.32;;;3.20;;
59388;SDS011;51830;45.202;19.720;2023-07-29T12:15:12;10.88;;;3.00;;
59388;SDS011;51830;45.202;19.720;2023-07-29T12:17:39;12.23;;;3.00;;
59388;SDS011;51830;45.202;19.720;2023-07-29T12:20:07;12.98;;;3.30;;
59388;SDS011;51830;45.202;19.720;2023-07-29T12:22:35;12.40;;;3.13;;
59388;SDS011;51830;45.202;19.720;2023-07-29T12:25:02;12.13;;;3.13;;
59388;SDS011;51830;45.202;19.720;2023-07-29T12:27:30;12.40;;;3.17;;
59388;SDS011;51830;45.202;19.720;2023-07-29T12:29:56;10.43;;;2.97;;
59388;SDS011;51830;45.202;19.720;2023-07-29T12:32:24;13.13;;;3.05;;
59388;SDS011;51830;45.202;19.720;2023-07-29T12:34:52;11.32;;;3.22;;
59388;SDS011;51830;45.202;19.720;2023-07-29T12:37:31;12.30;;;2.83;;
59388;SDS011;51830;45.202;19.720;2023-07-29T12:40:01;9.57;;;2.80;;
59388;SDS011;51830;45.202;19.720;2023-07-29T12:42:28;10.50;;;2.75;;
59388;SDS011;51830;45.202;19.720;2023-07-29T12:44:54;10.98;;;3.00;;
59388;SDS011;51830;45.202;19.720;2023-07-29T12:47:20;13.07;;;2.92;;
59388;SDS011;51830;45.202;19.720;2023-07-29T12:49:46;13.32;;;3.22;;
59388;SDS011;51830;45.202;19.720;2023-07-29T12:52:13;13.32;;;4.20;;
59388;SDS011;51830;45.202;19.720;2023-07-29T12:54:39;10.52;;;2.95;;
59388;SDS011;51830;45.202;19.720;2023-07-29T12:57:10;11.60;;;3.05;;
59388;SDS011;51830;45.202;19.720;2023-07-29T12:59:36;11.48;;;3.00;;
59388;SDS011;51830;45.202;19.720;2023-07-29T13:02:02;11.73;;;3.13;;
59388;SDS011;51830;45.202;19.720;2023-07-29T13:04:28;11.55;;;2.88;;
59388;SDS011;51830;45.202;19.720;2023-07-29T13:06:54;8.70;;;2.45;;
59388;SDS011;51830;45.202;19.720;2023-07-29T13:09:21;10.68;;;2.90;;
59388;SDS011;51830;45.202;19.720;2023-07-29T13:11:48;14.05;;;2.90;;
59388;SDS011;51830;45.202;19.720;2023-07-29T13:14:14;9.77;;;2.80;;
59388;SDS011;51830;45.202;19.720;2023-07-29T13:16:40;10.63;;;2.88;;
59388;SDS011;51830;45.202;19.720;2023-07-29T13:19:06;10.48;;;3.20;;
59388;SDS011;51830;45.202;19.720;2023-07-29T13:21:32;10.65;;;2.97;;
59388;SDS011;51830;45.202;19.720;2023-07-29T13:23:58;9.23;;;2.75;;
59388;SDS011;51830;45.202;19.720;2023-07-29T13:26:24;16.63;;;3.63;;
59388;SDS011;51830;45.202;19.720;2023-07-29T13:28:50;11.07;;;3.03;;
59388;SDS011;51830;45.202;19.720;2023-07-29T13:31:17;11.68;;;3.00;;
59388;SDS011;51830;45.202;19.720;2023-07-29T13:33:43;11.07;;;3.00;;
59388;SDS011;51830;45.202;19.720;2023-07-29T13:36:10;12.40;;;2.72;;
59388;SDS011;51830;45.202;19.720;2023-07-29T13:38:36;9.85;;;2.80;;
59388;SDS011;51830;45.202;19.720;2023-07-29T13:41:02;10.93;;;2.80;;
59388;SDS011;51830;45.202;19.720;2023-07-29T13:43:29;14.15;;;3.00;;
59388;SDS011;51830;45.202;19.720;2023-07-29T13:45:56;12.30;;;3.10;;
59388;SDS011;51830;45.202;19.720;2023-07-29T13:48:22;11.93;;;3.03;;
59388;SDS011;51830;45.202;19.720;2023-07-29T13:50:48;9.82;;;2.95;;
59388;SDS011;51830;45.202;19.720;2023-07-29T13:53:14;12.20;;;3.00;;
59388;SDS011;51830;45.202;19.720;2023-07-29T13:55:40;11.40;;;2.85;;
59388;SDS011;51830;45.202;19.720;2023-07-29T13:58:06;8.88;;;2.72;;
59388;SDS011;51830;45.202;19.720;2023-07-29T14:00:32;13.10;;;2.80;;
59388;SDS011;51830;45.202;19.720;2023-07-29T14:02:58;8.55;;;2.60;;
59388;SDS011;51830;45.202;19.720;2023-07-29T14:05:28;13.15;;;2.97;;
59388;SDS011;51830;45.202;19.720;2023-07-29T14:07:54;11.93;;;2.80;;
59388;SDS011;51830;45.202;19.720;2023-07-29T14:10:20;12.02;;;2.97;;
59388;SDS011;51830;45.202;19.720;2023-07-29T14:12:47;12.07;;;3.05;;
59388;SDS011;51830;45.202;19.720;2023-07-29T14:15:13;11.23;;;2.95;;
59388;SDS011;51830;45.202;19.720;2023-07-29T14:17:39;11.65;;;2.53;;
59388;SDS011;51830;45.202;19.720;2023-07-29T14:20:06;12.50;;;2.88;;
59388;SDS011;51830;45.202;19.720;2023-07-29T14:22:32;10.90;;;2.78;;
59388;SDS011;51830;45.202;19.720;2023-07-29T14:24:58;13.18;;;2.88;;
59388;SDS011;51830;45.202;19.720;2023-07-29T14:27:24;9.73;;;2.47;;
59388;SDS011;51830;45.202;19.720;2023-07-29T14:29:50;10.50;;;2.40;;
59388;SDS011;51830;45.202;19.720;2023-07-29T14:32:17;9.15;;;2.58;;